Time;durP1;ratioP1;P1;durP2;ratioP2;P2;SDS_P1;SDS_P2;PMS_P1;PMS_P2;Temp;Humidity;BMP_temperature;BMP_pressure;BME280_temperature;BME280_humidity;BME280_pressure;Samples;Min_cycle;Max_cycle;Signal;HPM_P1;HPM_P2
2022/09/18 00:02:08;;;;;;;12.95;1.88;;;;;;;;;;5071427;28;20510;-61
2022/09/18 00:04:34;;;;;;;6.43;0.90;;;;;;;;;;5070878;28;20127;-61
2022/09/18 00:07:00;;;;;;;13.23;1.85;;;;;;;;;;5071085;28;20040;-61
2022/09/18 00:09:26;;;;;;;6.88;1.15;;;;;;;;;;5070928;28;20052;-61
2022/09/18 00:11:52;;;;;;;13.10;2.03;;;;;;;;;;5070799;28;20123;-61
2022/09/18 00:14:20;;;;;;;7.78;1.38;;;;;;;;;;5071102;28;20374;-60
2022/09/18 00:16:46;;;;;;;13.88;1.50;;;;;;;;;;5070770;28;20032;-61
2022/09/18 00:19:13;;;;;;;4.72;1.08;;;;;;;;;;5070192;28;20121;-61
2022/09/18 00:21:40;;;;;;;12.10;1.40;;;;;;;;;;5071128;28;20041;-61
2022/09/18 00:24:06;;;;;;;12.63;1.67;;;;;;;;;;5071145;28;20039;-60
2022/09/18 00:26:34;;;;;;;8.50;1.17;;;;;;;;;;5070517;28;20044;-61
2022/09/18 00:29:00;;;;;;;12.45;1.98;;;;;;;;;;5070865;28;20041;-60
2022/09/18 00:31:28;;;;;;;9.27;1.60;;;;;;;;;;5071058;28;20046;-60
2022/09/18 00:33:55;;;;;;;16.13;1.95;;;;;;;;;;5070181;28;20098;-61
2022/09/18 00:36:21;;;;;;;8.38;1.63;;;;;;;;;;5070956;28;20517;-61
2022/09/18 00:38:47;;;;;;;15.00;1.95;;;;;;;;;;5070764;28;20053;-61
2022/09/18 00:41:15;;;;;;;8.48;1.60;;;;;;;;;;5070299;28;20036;-61
2022/09/18 00:43:41;;;;;;;9.77;1.50;;;;;;;;;;5069449;28;20098;-61
2022/09/18 00:46:07;;;;;;;9.57;2.00;;;;;;;;;;5070753;28;20045;-61
2022/09/18 00:48:39;;;;;;;13.45;1.52;;;;;;;;;;5070140;28;20463;-61
2022/09/18 00:51:06;;;;;;;9.27;1.48;;;;;;;;;;5070874;28;20045;-61
2022/09/18 00:53:32;;;;;;;7.30;1.20;;;;;;;;;;5070566;28;20124;-61
2022/09/18 00:56:00;;;;;;;8.90;1.67;;;;;;;;;;5070225;28;20040;-61
2022/09/18 00:58:26;;;;;;;10.43;1.48;;;;;;;;;;5070499;28;20055;-61
2022/09/18 01:00:54;;;;;;;7.97;1.55;;;;;;;;;;5070580;28;20037;-61
2022/09/18 01:03:20;;;;;;;12.82;1.58;;;;;;;;;;5068512;28;20055;-61
2022/09/18 01:05:52;;;;;;;9.82;1.70;;;;;;;;;;5070564;28;20047;-61
2022/09/18 01:08:25;;;;;;;10.65;1.70;;;;;;;;;;5069981;28;20101;-59
2022/09/18 01:10:51;;;;;;;11.38;1.77;;;;;;;;;;5070073;28;20048;-61
2022/09/18 01:13:35;;;;;;;19.30;2.22;;;;;;;;;;5070387;28;20070;-61
2022/09/18 01:16:04;;;;;;;9.15;1.30;;;;;;;;;;5070409;28;20036;-61
2022/09/18 01:18:49;;;;;;;12.38;2.60;;;;;;;;;;5069831;28;20037;-60
2022/09/18 01:21:41;;;;;;;8.38;1.55;;;;;;;;;;5070423;28;20032;-60
2022/09/18 01:24:27;;;;;;;7.75;1.60;;;;;;;;;;5069332;28;20056;-61
2022/09/18 01:26:55;;;;;;;9.38;1.38;;;;;;;;;;5070365;28;20499;-61
2022/09/18 01:29:21;;;;;;;10.95;1.55;;;;;;;;;;5070298;28;20041;-61
2022/09/18 01:31:54;;;;;;;9.52;1.88;;;;;;;;;;5069892;28;20174;-61
2022/09/18 01:34:32;;;;;;;13.05;1.90;;;;;;;;;;5070315;28;20037;-61
2022/09/18 01:37:01;;;;;;;8.48;1.33;;;;;;;;;;5070216;28;20050;-60
2022/09/18 01:39:30;;;;;;;11.50;1.80;;;;;;;;;;5069831;28;20045;-60
2022/09/18 01:41:57;;;;;;;8.48;1.20;;;;;;;;;;5070220;28;20039;-60
2022/09/18 01:44:25;;;;;;;12.23;1.20;;;;;;;;;;5069800;28;20040;-60
2022/09/18 01:46:52;;;;;;;8.88;1.15;;;;;;;;;;5069793;28;20040;-60
2022/09/18 01:49:20;;;;;;;10.93;2.22;;;;;;;;;;5070051;28;20071;-60
2022/09/18 01:52:07;;;;;;;8.82;1.33;;;;;;;;;;5070259;28;20064;-61
2022/09/18 01:54:34;;;;;;;11.23;1.52;;;;;;;;;;5070432;28;20040;-61
2022/09/18 01:57:10;;;;;;;9.25;1.40;;;;;;;;;;5073632;28;20359;-61
2022/09/18 01:59:42;;;;;;;8.57;1.35;;;;;;;;;;5073587;28;20036;-61
2022/09/18 02:02:17;;;;;;;10.23;1.65;;;;;;;;;;5073195;28;20508;-61
2022/09/18 02:04:44;;;;;;;9.63;1.30;;;;;;;;;;5073561;28;20119;-61
2022/09/18 02:07:13;;;;;;;6.95;1.08;;;;;;;;;;5073289;28;20048;-61
2022/09/18 02:09:39;;;;;;;9.15;1.30;;;;;;;;;;5072600;28;20053;-61
2022/09/18 02:12:07;;;;;;;13.73;1.95;;;;;;;;;;5073400;28;20047;-61
2022/09/18 02:14:35;;;;;;;10.43;1.73;;;;;;;;;;5073293;28;20147;-61
2022/09/18 02:17:05;;;;;;;9.68;1.35;;;;;;;;;;5072861;28;20052;-61
2022/09/18 02:19:35;;;;;;;9.38;1.83;;;;;;;;;;5073277;28;20048;-61
2022/09/18 02:22:03;;;;;;;12.50;2.05;;;;;;;;;;5071851;28;20036;-61
2022/09/18 02:24:32;;;;;;;9.88;1.30;;;;;;;;;;5072492;28;20058;-61
2022/09/18 02:26:58;;;;;;;6.82;1.33;;;;;;;;;;5072994;28;20036;-61
2022/09/18 02:29:24;;;;;;;12.18;1.75;;;;;;;;;;5073182;28;20044;-61
2022/09/18 02:31:51;;;;;;;7.13;1.85;;;;;;;;;;5072374;28;20051;-61
2022/09/18 02:34:18;;;;;;;10.70;1.33;;;;;;;;;;5072948;28;20582;-60
2022/09/18 02:36:44;;;;;;;9.80;1.10;;;;;;;;;;5073125;28;20036;-61
2022/09/18 02:39:26;;;;;;;13.35;1.70;;;;;;;;;;5072375;28;20463;-61
2022/09/18 02:41:53;;;;;;;12.13;1.63;;;;;;;;;;5071502;28;20048;-60
2022/09/18 02:44:24;;;;;;;11.07;1.25;;;;;;;;;;5072641;28;20075;-61
2022/09/18 02:47:05;;;;;;;13.60;1.52;;;;;;;;;;5072430;28;20045;-60
2022/09/18 02:49:43;;;;;;;9.02;1.10;;;;;;;;;;5072762;28;20070;-61
2022/09/18 02:52:19;;;;;;;6.80;1.27;;;;;;;;;;5072885;28;20044;-61
2022/09/18 02:54:52;;;;;;;5.45;1.23;;;;;;;;;;5072490;28;20551;-61
2022/09/18 02:57:20;;;;;;;10.00;1.38;;;;;;;;;;5072572;28;20186;-61
2022/09/18 02:59:48;;;;;;;11.35;1.77;;;;;;;;;;5072429;28;20355;-61
2022/09/18 03:02:15;;;;;;;6.95;1.42;;;;;;;;;;5072513;28;20120;-61
2022/09/18 03:04:41;;;;;;;8.73;1.65;;;;;;;;;;5071085;28;20048;-61
2022/09/18 03:07:07;;;;;;;10.45;1.35;;;;;;;;;;5071265;28;20036;-61
2022/09/18 03:09:33;;;;;;;4.82;0.93;;;;;;;;;;5071848;28;20102;-61
2022/09/18 03:12:01;;;;;;;8.70;1.48;;;;;;;;;;5071913;28;20044;-61
2022/09/18 03:14:27;;;;;;;10.07;1.10;;;;;;;;;;5072225;28;20137;-61
2022/09/18 03:16:53;;;;;;;8.77;1.15;;;;;;;;;;5071773;28;20040;-61
2022/09/18 03:19:19;;;;;;;9.27;1.40;;;;;;;;;;5071996;28;20041;-61
2022/09/18 03:21:45;;;;;;;8.20;1.13;;;;;;;;;;5072199;28;20082;-61
2022/09/18 03:24:11;;;;;;;6.13;1.05;;;;;;;;;;5071680;28;20044;-61
2022/09/18 03:26:37;;;;;;;8.80;1.23;;;;;;;;;;5071868;28;20394;-61
2022/09/18 03:29:07;;;;;;;5.53;1.00;;;;;;;;;;5071920;28;20371;-61
2022/09/18 03:31:33;;;;;;;7.32;1.30;;;;;;;;;;5071516;28;20091;-60
2022/09/18 03:33:59;;;;;;;12.10;1.13;;;;;;;;;;5071824;28;20037;-61
2022/09/18 03:36:25;;;;;;;6.97;1.25;;;;;;;;;;5071829;28;20079;-60
2022/09/18 03:38:51;;;;;;;13.57;1.45;;;;;;;;;;5071114;28;20040;-60
2022/09/18 03:41:17;;;;;;;6.18;0.90;;;;;;;;;;5071609;28;20071;-61
2022/09/18 03:43:43;;;;;;;6.45;1.00;;;;;;;;;;5071738;28;20086;-61
2022/09/18 03:46:09;;;;;;;9.50;1.27;;;;;;;;;;5071288;28;20044;-61
2022/09/18 03:48:35;;;;;;;5.20;1.25;;;;;;;;;;5071562;28;20036;-61
2022/09/18 03:51:02;;;;;;;7.60;1.35;;;;;;;;;;5071506;28;20127;-61
2022/09/18 03:53:28;;;;;;;8.05;1.20;;;;;;;;;;5070832;28;20044;-61
2022/09/18 03:55:54;;;;;;;8.90;1.33;;;;;;;;;;5071474;28;20120;-61
2022/09/18 03:58:20;;;;;;;5.28;0.90;;;;;;;;;;5071442;28;20038;-61
2022/09/18 04:00:46;;;;;;;9.93;1.15;;;;;;;;;;5071062;28;20040;-61
2022/09/18 04:03:12;;;;;;;8.75;1.27;;;;;;;;;;5071358;28;20119;-61
2022/09/18 04:05:38;;;;;;;10.30;1.52;;;;;;;;;;5070889;28;20060;-61
2022/09/18 04:08:04;;;;;;;7.15;1.00;;;;;;;;;;5070876;28;20118;-61
2022/09/18 04:10:31;;;;;;;8.45;1.42;;;;;;;;;;5070793;28;20482;-61
2022/09/18 04:12:57;;;;;;;8.82;1.20;;;;;;;;;;5071096;28;20103;-61
2022/09/18 04:15:23;;;;;;;5.32;0.93;;;;;;;;;;5070761;28;20055;-61
2022/09/18 04:17:49;;;;;;;9.48;1.45;;;;;;;;;;5070745;28;20044;-61
2022/09/18 04:20:15;;;;;;;8.32;1.20;;;;;;;;;;5071050;28;20120;-61
2022/09/18 04:22:41;;;;;;;7.50;1.27;;;;;;;;;;5070657;28;20044;-60
2022/09/18 04:25:07;;;;;;;9.15;0.95;;;;;;;;;;5070705;28;20135;-61
2022/09/18 04:27:35;;;;;;;6.47;1.05;;;;;;;;;;5070858;28;20048;-61
2022/09/18 04:30:01;;;;;;;8.38;1.20;;;;;;;;;;5070576;28;20059;-61
2022/09/18 04:32:27;;;;;;;7.10;1.10;;;;;;;;;;5070870;28;20182;-61
2022/09/18 04:34:53;;;;;;;8.50;1.10;;;;;;;;;;5070897;28;20036;-61
2022/09/18 04:37:19;;;;;;;10.50;1.20;;;;;;;;;;5070330;28;20078;-61
2022/09/18 04:39:45;;;;;;;5.60;1.00;;;;;;;;;;5070797;28;20178;-61
2022/09/18 04:42:11;;;;;;;6.95;1.40;;;;;;;;;;5070683;28;20048;-61
2022/09/18 04:44:37;;;;;;;11.82;1.30;;;;;;;;;;5070435;28;20063;-61
2022/09/18 04:47:05;;;;;;;8.45;1.10;;;;;;;;;;5070661;28;20041;-61
2022/09/18 04:49:31;;;;;;;9.40;1.30;;;;;;;;;;5070740;28;20051;-61
2022/09/18 04:51:57;;;;;;;4.78;0.90;;;;;;;;;;5070245;28;20419;-61
2022/09/18 04:54:23;;;;;;;5.40;1.10;;;;;;;;;;5070344;28;20036;-61
2022/09/18 04:56:49;;;;;;;5.88;0.88;;;;;;;;;;5070572;28;20110;-60
2022/09/18 04:59:15;;;;;;;8.90;1.00;;;;;;;;;;5070147;28;20456;-60
2022/09/18 05:01:41;;;;;;;9.88;1.13;;;;;;;;;;5070630;28;20044;-61
2022/09/18 05:04:07;;;;;;;6.47;1.08;;;;;;;;;;5070476;28;20048;-61
2022/09/18 05:06:34;;;;;;;3.10;0.65;;;;;;;;;;5070163;28;20036;-61
2022/09/18 05:09:00;;;;;;;7.43;1.10;;;;;;;;;;5070207;28;20110;-61
2022/09/18 05:11:26;;;;;;;4.45;0.93;;;;;;;;;;5070317;28;20047;-61
2022/09/18 05:13:55;;;;;;;4.75;0.90;;;;;;;;;;5069934;28;20261;-61
2022/09/18 05:16:22;;;;;;;6.85;1.20;;;;;;;;;;5070533;28;20426;-61
2022/09/18 05:18:49;;;;;;;6.40;0.80;;;;;;;;;;5070414;28;20399;-61
2022/09/18 05:21:15;;;;;;;9.70;1.25;;;;;;;;;;5070067;28;20036;-61
2022/09/18 05:23:44;;;;;;;6.38;1.05;;;;;;;;;;5070429;28;20044;-61
2022/09/18 05:26:10;;;;;;;4.30;1.00;;;;;;;;;;5070253;28;20444;-61
2022/09/18 05:28:36;;;;;;;11.80;2.28;;;;;;;;;;5070100;28;20037;-61
2022/09/18 05:31:02;;;;;;;8.48;1.50;;;;;;;;;;5074007;28;20072;-60
2022/09/18 05:33:28;;;;;;;7.35;1.40;;;;;;;;;;5074135;28;20524;-61
2022/09/18 05:35:55;;;;;;;6.75;1.20;;;;;;;;;;5073873;28;20043;-61
2022/09/18 05:38:21;;;;;;;6.35;1.00;;;;;;;;;;5073997;28;20078;-61
2022/09/18 05:40:47;;;;;;;7.70;1.13;;;;;;;;;;5073608;28;20438;-60
2022/09/18 05:43:14;;;;;;;8.85;1.13;;;;;;;;;;5073728;28;20041;-61
2022/09/18 05:45:41;;;;;;;4.78;0.80;;;;;;;;;;5074090;28;20048;-60
2022/09/18 05:48:07;;;;;;;6.68;0.88;;;;;;;;;;5072635;28;20143;-61
2022/09/18 05:50:35;;;;;;;8.23;1.13;;;;;;;;;;5073544;28;20457;-61
2022/09/18 05:53:01;;;;;;;6.25;1.23;;;;;;;;;;5073806;28;20080;-61
2022/09/18 05:55:27;;;;;;;4.88;0.82;;;;;;;;;;5073818;28;20044;-61
2022/09/18 05:57:54;;;;;;;7.80;1.00;;;;;;;;;;5073287;28;20133;-61
2022/09/18 06:00:21;;;;;;;9.45;0.85;;;;;;;;;;5073365;28;20167;-61
2022/09/18 06:02:54;;;;;;;5.15;1.00;;;;;;;;;;5073619;28;20502;-61
2022/09/18 06:05:21;;;;;;;4.03;0.95;;;;;;;;;;5073006;28;20064;-61
2022/09/18 06:07:47;;;;;;;9.90;1.17;;;;;;;;;;5073504;28;20076;-60
2022/09/18 06:10:13;;;;;;;4.80;1.00;;;;;;;;;;5073010;28;20166;-61
2022/09/18 06:12:39;;;;;;;7.45;1.00;;;;;;;;;;5073101;28;20413;-60
2022/09/18 06:15:05;;;;;;;5.43;1.00;;;;;;;;;;5073526;28;20040;-60
2022/09/18 06:17:32;;;;;;;5.32;0.95;;;;;;;;;;5073109;28;20443;-61
2022/09/18 06:19:58;;;;;;;3.97;0.70;;;;;;;;;;5072890;28;20040;-61
2022/09/18 06:22:25;;;;;;;3.97;0.77;;;;;;;;;;5071903;28;20063;-60
2022/09/18 06:24:51;;;;;;;3.92;0.95;;;;;;;;;;5073229;28;20119;-61
2022/09/18 06:27:17;;;;;;;6.18;1.00;;;;;;;;;;5072739;28;20041;-61
2022/09/18 06:29:43;;;;;;;8.10;1.00;;;;;;;;;;5073222;28;20037;-61
2022/09/18 06:32:09;;;;;;;6.15;1.00;;;;;;;;;;5073328;28;20211;-61
2022/09/18 06:34:35;;;;;;;3.92;1.00;;;;;;;;;;5072762;28;20076;-61
2022/09/18 06:37:02;;;;;;;5.78;1.48;;;;;;;;;;5073058;28;20095;-61
2022/09/18 06:39:28;;;;;;;6.88;0.98;;;;;;;;;;5072861;28;20041;-61
2022/09/18 06:41:54;;;;;;;7.90;0.90;;;;;;;;;;5072202;28;20506;-61
2022/09/18 06:44:20;;;;;;;4.32;0.70;;;;;;;;;;5072889;28;20052;-61
2022/09/18 06:46:46;;;;;;;4.75;0.95;;;;;;;;;;5072890;28;20125;-61
2022/09/18 06:49:13;;;;;;;2.75;0.75;;;;;;;;;;5072593;28;20040;-61
2022/09/18 06:51:39;;;;;;;6.75;0.85;;;;;;;;;;5072523;28;20081;-61
2022/09/18 06:54:05;;;;;;;7.70;0.88;;;;;;;;;;5072656;28;20048;-61
2022/09/18 06:56:31;;;;;;;4.47;0.70;;;;;;;;;;5072695;28;20086;-61
2022/09/18 06:58:57;;;;;;;7.47;0.85;;;;;;;;;;5072136;28;20079;-61
2022/09/18 07:01:24;;;;;;;5.15;1.05;;;;;;;;;;5072630;28;20036;-61
2022/09/18 07:03:50;;;;;;;6.80;0.80;;;;;;;;;;5072182;28;20044;-61
2022/09/18 07:06:16;;;;;;;6.43;1.38;;;;;;;;;;5071673;28;20051;-61
2022/09/18 07:08:42;;;;;;;7.07;1.15;;;;;;;;;;5072021;28;20049;-61
2022/09/18 07:11:08;;;;;;;6.68;0.93;;;;;;;;;;5072567;28;20372;-61
2022/09/18 07:13:36;;;;;;;7.43;1.33;;;;;;;;;;5071826;28;20138;-61
2022/09/18 07:16:02;;;;;;;7.40;0.95;;;;;;;;;;5072215;28;20064;-61
2022/09/18 07:18:28;;;;;;;12.70;1.27;;;;;;;;;;5072082;28;20055;-61
2022/09/18 07:20:55;;;;;;;7.53;1.40;;;;;;;;;;5071716;28;20033;-61
2022/09/18 07:23:21;;;;;;;8.38;1.13;;;;;;;;;;5072138;28;20124;-61
2022/09/18 07:25:47;;;;;;;5.60;1.13;;;;;;;;;;5072038;28;20483;-61
2022/09/18 07:28:13;;;;;;;10.18;1.27;;;;;;;;;;5071430;28;20044;-61
2022/09/18 07:30:39;;;;;;;8.35;1.15;;;;;;;;;;5072083;28;20040;-61
2022/09/18 07:33:06;;;;;;;6.10;0.88;;;;;;;;;;5071966;28;20044;-61
2022/09/18 07:35:32;;;;;;;9.95;1.10;;;;;;;;;;5071506;28;20039;-61
2022/09/18 07:37:58;;;;;;;6.63;1.10;;;;;;;;;;5071832;28;20037;-61
2022/09/18 07:40:25;;;;;;;5.80;1.10;;;;;;;;;;5070238;28;20047;-61
2022/09/18 07:42:51;;;;;;;8.68;1.00;;;;;;;;;;5071438;28;20509;-61
2022/09/18 07:45:17;;;;;;;9.60;1.80;;;;;;;;;;5071667;28;20076;-61
2022/09/18 07:47:43;;;;;;;9.82;1.60;;;;;;;;;;5071493;28;20487;-61
2022/09/18 07:50:14;;;;;;;9.10;1.55;;;;;;;;;;5070072;28;20084;-61
2022/09/18 07:52:47;;;;;;;6.13;0.90;;;;;;;;;;5070738;28;20044;-61
2022/09/18 07:55:13;;;;;;;6.95;1.02;;;;;;;;;;5071510;28;20041;-61
2022/09/18 07:57:39;;;;;;;5.50;0.90;;;;;;;;;;5070996;28;20042;-61
2022/09/18 08:00:07;;;;;;;3.05;0.70;;;;;;;;;;5071386;28;20115;-61
2022/09/18 08:02:33;;;;;;;5.88;1.40;;;;;;;;;;5071251;28;20046;-61
2022/09/18 08:04:59;;;;;;;3.83;1.00;;;;;;;;;;5071043;28;20076;-61
2022/09/18 08:07:25;;;;;;;9.63;0.95;;;;;;;;;;5070994;28;20047;-61
2022/09/18 08:09:51;;;;;;;2.47;0.80;;;;;;;;;;5070904;28;20093;-61
2022/09/18 08:12:18;;;;;;;4.70;1.23;;;;;;;;;;5070609;28;20040;-61
2022/09/18 08:14:44;;;;;;;4.15;0.80;;;;;;;;;;5071072;28;20661;-61
2022/09/18 08:17:10;;;;;;;5.05;0.80;;;;;;;;;;5071089;28;20115;-61
2022/09/18 08:19:36;;;;;;;3.00;0.90;;;;;;;;;;5070501;28;20075;-61
2022/09/18 08:22:04;;;;;;;8.32;0.90;;;;;;;;;;5071017;28;20055;-61
2022/09/18 08:24:30;;;;;;;6.57;1.10;;;;;;;;;;5071097;28;20481;-61
2022/09/18 08:27:02;;;;;;;4.18;0.90;;;;;;;;;;5070497;28;20040;-61
2022/09/18 08:29:28;;;;;;;4.87;0.80;;;;;;;;;;5069844;28;20055;-61
2022/09/18 08:31:54;;;;;;;6.53;0.93;;;;;;;;;;5071022;28;20637;-61
2022/09/18 08:34:20;;;;;;;8.35;1.20;;;;;;;;;;5070459;28;20040;-61
2022/09/18 08:36:47;;;;;;;5.90;1.00;;;;;;;;;;5070870;28;20039;-61
2022/09/18 08:39:13;;;;;;;4.35;1.50;;;;;;;;;;5069070;28;20535;-61
2022/09/18 08:41:51;;;;;;;8.18;2.10;;;;;;;;;;5070489;28;20045;-61
2022/09/18 08:44:24;;;;;;;6.72;1.90;;;;;;;;;;5070733;28;20078;-61
2022/09/18 08:47:06;;;;;;;10.60;1.00;;;;;;;;;;5070845;28;20040;-61
2022/09/18 08:49:35;;;;;;;5.97;1.33;;;;;;;;;;5070325;28;20040;-61
2022/09/18 08:52:15;;;;;;;5.30;1.40;;;;;;;;;;5070813;28;20036;-61
2022/09/18 08:54:47;;;;;;;4.28;1.27;;;;;;;;;;5070429;28;20044;-61
2022/09/18 08:57:15;;;;;;;5.85;1.65;;;;;;;;;;5070209;28;20063;-61
2022/09/18 08:59:49;;;;;;;5.57;1.33;;;;;;;;;;5070534;28;20032;-61
2022/09/18 09:02:31;;;;;;;3.70;0.70;;;;;;;;;;5070420;28;20040;-61
2022/09/18 09:05:00;;;;;;;6.85;0.80;;;;;;;;;;5072545;28;20048;-61
2022/09/18 09:07:34;;;;;;;9.38;1.10;;;;;;;;;;5074507;28;20036;-61
2022/09/18 09:10:14;;;;;;;11.40;1.30;;;;;;;;;;5073949;28;20048;-61
2022/09/18 09:12:59;;;;;;;5.20;0.98;;;;;;;;;;5074629;28;20032;-61
2022/09/18 09:15:34;;;;;;;5.82;0.98;;;;;;;;;;5074719;28;20101;-61
2022/09/18 09:18:17;;;;;;;3.25;0.98;;;;;;;;;;5074129;28;20098;-61
2022/09/18 09:20:52;;;;;;;4.20;0.90;;;;;;;;;;5072846;28;20617;-61
2022/09/18 09:23:22;;;;;;;9.77;2.45;;;;;;;;;;5074543;28;20049;-61
2022/09/18 09:26:00;;;;;;;14.23;1.73;;;;;;;;;;5073644;28;20076;-61
2022/09/18 09:28:29;;;;;;;6.90;1.20;;;;;;;;;;5074187;28;20040;-60
2022/09/18 09:30:57;;;;;;;5.75;1.15;;;;;;;;;;5074508;28;20040;-60
2022/09/18 09:33:26;;;;;;;6.93;1.20;;;;;;;;;;5073710;28;20072;-61
2022/09/18 09:35:58;;;;;;;7.78;0.90;;;;;;;;;;5073856;28;20049;-61
2022/09/18 09:38:24;;;;;;;6.60;1.17;;;;;;;;;;5074099;28;20037;-61
2022/09/18 09:40:51;;;;;;;7.65;1.08;;;;;;;;;;5073539;28;20127;-61
2022/09/18 09:43:23;;;;;;;6.45;1.00;;;;;;;;;;5074053;28;20109;-61
2022/09/18 09:45:54;;;;;;;4.25;0.63;;;;;;;;;;5073943;28;20532;-61
2022/09/18 09:48:20;;;;;;;5.47;0.90;;;;;;;;;;5073440;28;20044;-61
2022/09/18 09:51:03;;;;;;;6.63;1.00;;;;;;;;;;5074008;28;20043;-60
2022/09/18 09:53:29;;;;;;;4.28;0.98;;;;;;;;;;5073966;28;20052;-61
2022/09/18 09:56:14;;;;;;;3.78;0.82;;;;;;;;;;5073432;28;20032;-60
2022/09/18 09:58:55;;;;;;;10.77;1.27;;;;;;;;;;5073333;28;20037;-60
2022/09/18 10:01:25;;;;;;;6.80;0.95;;;;;;;;;;5073675;28;20058;-61
2022/09/18 10:04:00;;;;;;;3.95;0.68;;;;;;;;;;5073159;28;20048;-61
2022/09/18 10:06:45;;;;;;;6.57;1.02;;;;;;;;;;5073574;28;20049;-61
2022/09/18 10:09:30;;;;;;;8.13;1.00;;;;;;;;;;5072969;28;20059;-61
2022/09/18 10:12:02;;;;;;;6.45;0.90;;;;;;;;;;5073648;28;20040;-60
2022/09/18 10:14:30;;;;;;;6.38;0.80;;;;;;;;;;5073363;28;20052;-61
2022/09/18 10:16:57;;;;;;;5.10;0.75;;;;;;;;;;5072644;28;20029;-60
2022/09/18 10:19:28;;;;;;;7.78;0.95;;;;;;;;;;5073307;28;20097;-61
2022/09/18 10:21:55;;;;;;;5.82;0.98;;;;;;;;;;5073401;28;20042;-60
2022/09/18 10:24:27;;;;;;;5.57;1.13;;;;;;;;;;5072964;28;20067;-60
2022/09/18 10:26:57;;;;;;;7.97;1.27;;;;;;;;;;5072933;28;20049;-61
2022/09/18 10:29:23;;;;;;;3.42;0.85;;;;;;;;;;5073308;28;20071;-60
2022/09/18 10:31:59;;;;;;;5.85;0.75;;;;;;;;;;5072793;28;20049;-61
2022/09/18 10:34:34;;;;;;;9.30;1.10;;;;;;;;;;5072952;28;20059;-60
2022/09/18 10:37:01;;;;;;;4.43;0.90;;;;;;;;;;5072976;28;20098;-60
2022/09/18 10:39:28;;;;;;;7.35;1.00;;;;;;;;;;5072442;28;20041;-61
2022/09/18 10:42:04;;;;;;;6.72;1.25;;;;;;;;;;5072794;28;20128;-59
2022/09/18 10:44:34;;;;;;;10.20;1.10;;;;;;;;;;5072948;28;20078;-60
2022/09/18 10:47:06;;;;;;;3.83;1.15;;;;;;;;;;5072385;28;20136;-61
2022/09/18 10:49:34;;;;;;;6.53;0.90;;;;;;;;;;5072783;28;20047;-60
2022/09/18 10:52:34;;;;;;;7.60;1.15;;;;;;;;;;5072832;28;20606;-61
2022/09/18 10:55:06;;;;;;;7.78;1.15;;;;;;;;;;5070496;28;20056;-61
2022/09/18 10:57:34;;;;;;;6.63;1.08;;;;;;;;;;5072660;28;20135;-61
2022/09/18 11:00:01;;;;;;;5.65;1.13;;;;;;;;;;5072623;28;20047;-61
2022/09/18 11:02:32;;;;;;;8.23;1.23;;;;;;;;;;5072150;28;20529;-61
2022/09/18 11:04:58;;;;;;;14.35;1.67;;;;;;;;;;5072450;28;20467;-61
2022/09/18 11:07:24;;;;;;;4.93;0.80;;;;;;;;;;5072306;28;20124;-61
2022/09/18 11:09:51;;;;;;;7.55;1.30;;;;;;;;;;5071666;28;20454;-61
2022/09/18 11:12:18;;;;;;;6.82;1.42;;;;;;;;;;5072357;28;20043;-61
2022/09/18 11:14:48;;;;;;;6.97;1.08;;;;;;;;;;5072254;28;20044;-61
2022/09/18 11:17:19;;;;;;;5.03;0.75;;;;;;;;;;5071815;28;20036;-61
2022/09/18 11:19:49;;;;;;;4.50;0.90;;;;;;;;;;5072193;28;20040;-61
2022/09/18 11:22:30;;;;;;;9.77;1.10;;;;;;;;;;5071949;28;20036;-61
2022/09/18 11:25:15;;;;;;;9.07;1.48;;;;;;;;;;5071765;28;20063;-61
2022/09/18 11:27:49;;;;;;;6.85;0.80;;;;;;;;;;5071261;28;20042;-61
2022/09/18 11:30:20;;;;;;;11.20;1.33;;;;;;;;;;5070758;28;20127;-61
2022/09/18 11:32:48;;;;;;;5.32;0.90;;;;;;;;;;5071601;28;20119;-61
2022/09/18 11:35:15;;;;;;;9.75;1.33;;;;;;;;;;5071958;28;20040;-61
2022/09/18 11:37:48;;;;;;;6.15;1.20;;;;;;;;;;5071762;28;20032;-61
2022/09/18 11:40:14;;;;;;;;;;;;;;;;;;5071981;28;20546;-61
2022/09/18 11:42:43;;;;;;;7.20;1.10;;;;;;;;;;5071741;28;19920;-60
2022/09/18 11:45:25;;;;;;;7.25;1.40;;;;;;;;;;5071727;28;20051;-61
2022/09/18 11:47:58;;;;;;;11.00;1.42;;;;;;;;;;5071637;28;20064;-61
2022/09/18 11:50:25;;;;;;;10.15;1.27;;;;;;;;;;5071860;28;20036;-60
2022/09/18 11:52:58;;;;;;;9.70;1.40;;;;;;;;;;5070878;28;20433;-61
2022/09/18 11:55:30;;;;;;;12.45;1.50;;;;;;;;;;5071578;28;20124;-60
2022/09/18 11:57:59;;;;;;;7.80;1.55;;;;;;;;;;5071506;28;20137;-61
2022/09/18 12:00:27;;;;;;;6.57;1.15;;;;;;;;;;5071103;28;20086;-61
2022/09/18 12:02:56;;;;;;;10.10;1.13;;;;;;;;;;5071270;28;20033;-60
2022/09/18 12:05:33;;;;;;;9.23;1.30;;;;;;;;;;5071268;28;20056;-61
2022/09/18 12:08:19;;;;;;;6.82;1.48;;;;;;;;;;5070756;28;20036;-61
2022/09/18 12:11:04;;;;;;;8.85;1.48;;;;;;;;;;5071387;28;20045;-60
2022/09/18 12:13:33;;;;;;;7.35;1.38;;;;;;;;;;5071089;28;20041;-61
2022/09/18 12:16:03;;;;;;;8.85;1.15;;;;;;;;;;5070988;28;20040;-60
2022/09/18 12:18:36;;;;;;;4.70;0.90;;;;;;;;;;5070999;28;20037;-61
2022/09/18 12:21:03;;;;;;;12.10;1.98;;;;;;;;;;5071056;28;20593;-60
2022/09/18 12:23:30;;;;;;;7.57;1.33;;;;;;;;;;5070597;28;20048;-60
2022/09/18 12:26:05;;;;;;;8.40;1.52;;;;;;;;;;5070966;28;20106;-61
2022/09/18 12:28:31;;;;;;;6.18;1.25;;;;;;;;;;5070804;28;20122;-60
2022/09/18 12:31:16;;;;;;;6.20;1.35;;;;;;;;;;5069042;28;20066;-61
2022/09/18 12:33:56;;;;;;;9.00;1.45;;;;;;;;;;5070860;28;20600;-61
2022/09/18 12:36:28;;;;;;;6.63;1.30;;;;;;;;;;5070787;28;20040;-61
2022/09/18 12:39:12;;;;;;;9.65;1.20;;;;;;;;;;5070332;28;20040;-60
2022/09/18 12:41:47;;;;;;;10.25;1.50;;;;;;;;;;5070976;28;20040;-61
2022/09/18 12:44:22;;;;;;;10.23;1.13;;;;;;;;;;5070804;28;20044;-61
2022/09/18 12:46:57;;;;;;;11.35;1.58;;;;;;;;;;5070475;28;20053;-61
2022/09/18 12:49:42;;;;;;;14.52;1.63;;;;;;;;;;5070802;28;20036;-61
2022/09/18 12:52:24;;;;;;;12.27;1.45;;;;;;;;;;5068999;28;20056;-61
2022/09/18 12:54:59;;;;;;;10.63;1.95;;;;;;;;;;5070164;28;20037;-60
2022/09/18 12:57:28;;;;;;;6.35;1.20;;;;;;;;;;5070706;28;20064;-60
2022/09/18 12:59:56;;;;;;;8.35;1.30;;;;;;;;;;5070235;28;20132;-60
2022/09/18 13:02:41;;;;;;;5.15;1.30;;;;;;;;;;5068992;28;20112;-61
2022/09/18 13:05:26;;;;;;;6.20;1.00;;;;;;;;;;5070540;28;20036;-61
2022/09/18 13:08:00;;;;;;;8.50;1.20;;;;;;;;;;5068545;28;20047;-60
2022/09/18 13:10:28;;;;;;;8.30;1.10;;;;;;;;;;5070338;28;20060;-61
2022/09/18 13:13:09;;;;;;;7.10;1.20;;;;;;;;;;5070625;28;20098;-61
2022/09/18 13:15:35;;;;;;;7.63;1.92;;;;;;;;;;5070356;28;20036;-61
2022/09/18 13:18:11;;;;;;;7.25;1.15;;;;;;;;;;5070463;28;20127;-61
2022/09/18 13:20:42;;;;;;;6.38;1.40;;;;;;;;;;5070503;28;20064;-61
2022/09/18 13:23:15;;;;;;;9.05;1.70;;;;;;;;;;5068694;28;20049;-61
2022/09/18 13:25:42;;;;;;;9.43;1.80;;;;;;;;;;5070371;28;20035;-61
2022/09/18 13:28:11;;;;;;;6.15;1.75;;;;;;;;;;5070068;28;20049;-61
2022/09/18 13:30:37;;;;;;;11.43;1.92;;;;;;;;;;5070149;28;20091;-61
2022/09/18 13:33:03;;;;;;;6.72;1.33;;;;;;;;;;5068864;28;20037;-61
2022/09/18 13:35:31;;;;;;;12.50;2.03;;;;;;;;;;5070363;28;20475;-61
2022/09/18 13:38:06;;;;;;;8.10;1.80;;;;;;;;;;5069718;28;20036;-61
2022/09/18 13:40:47;;;;;;;9.95;1.77;;;;;;;;;;5070291;28;20033;-61
2022/09/18 13:43:15;;;;;;;5.93;1.15;;;;;;;;;;5070218;28;20043;-61
2022/09/18 13:45:41;;;;;;;8.65;1.20;;;;;;;;;;5069888;28;20051;-61
2022/09/18 13:48:19;;;;;;;13.68;1.35;;;;;;;;;;5070118;28;20084;-61
2022/09/18 13:51:04;;;;;;;10.38;1.30;;;;;;;;;;5071542;28;20044;-61
2022/09/18 13:53:31;;;;;;;7.72;1.30;;;;;;;;;;5073719;28;20063;-61
2022/09/18 13:55:57;;;;;;;3.78;1.00;;;;;;;;;;5073541;28;20075;-61
2022/09/18 13:58:35;;;;;;;9.65;1.52;;;;;;;;;;5073716;28;20090;-61
2022/09/18 14:01:02;;;;;;;9.02;1.10;;;;;;;;;;5073578;28;20081;-61
2022/09/18 14:03:28;;;;;;;6.07;1.45;;;;;;;;;;5073820;28;20052;-61
2022/09/18 14:05:54;;;;;;;7.93;1.10;;;;;;;;;;5073122;28;20074;-61
2022/09/18 14:08:21;;;;;;;5.05;1.05;;;;;;;;;;5073351;28;20621;-61
2022/09/18 14:10:47;;;;;;;7.28;1.13;;;;;;;;;;5073374;28;20048;-61
2022/09/18 14:13:22;;;;;;;9.40;1.13;;;;;;;;;;5073473;28;20044;-60
2022/09/18 14:15:51;;;;;;;5.53;1.13;;;;;;;;;;5073226;28;20044;-61
2022/09/18 14:18:21;;;;;;;7.22;1.27;;;;;;;;;;5073293;28;20032;-61
2022/09/18 14:20:53;;;;;;;6.90;1.08;;;;;;;;;;5072972;28;20044;-61
2022/09/18 14:23:34;;;;;;;11.30;1.65;;;;;;;;;;5073399;28;20702;-61
2022/09/18 14:26:01;;;;;;;6.80;1.30;;;;;;;;;;5073246;28;20158;-61
2022/09/18 14:28:28;;;;;;;9.82;1.33;;;;;;;;;;5072814;28;20037;-61
2022/09/18 14:31:13;;;;;;;10.23;1.30;;;;;;;;;;5073192;28;20080;-61
2022/09/18 14:33:40;;;;;;;8.05;1.33;;;;;;;;;;5073240;28;20045;-61
2022/09/18 14:36:07;;;;;;;7.78;1.10;;;;;;;;;;5072928;28;20120;-61
2022/09/18 14:38:37;;;;;;;15.38;1.80;;;;;;;;;;5073060;28;20402;-61
2022/09/18 14:41:17;;;;;;;6.28;1.40;;;;;;;;;;5072925;28;20048;-61
2022/09/18 14:43:47;;;;;;;8.27;1.10;;;;;;;;;;5072500;28;20075;-60
2022/09/18 14:46:20;;;;;;;4.43;0.90;;;;;;;;;;5072973;28;20040;-61
2022/09/18 14:48:47;;;;;;;9.20;2.00;;;;;;;;;;5072824;28;20452;-61
2022/09/18 14:51:16;;;;;;;11.85;1.45;;;;;;;;;;5072538;28;20431;-61
2022/09/18 14:53:44;;;;;;;10.68;1.13;;;;;;;;;;5072692;28;20040;-61
2022/09/18 14:56:13;;;;;;;6.88;1.10;;;;;;;;;;5072748;28;20047;-61